createdAt,value
2023-04-17T00:00:15.397Z,14.25
2023-04-17T00:02:43.379Z,6.07
2023-04-17T00:05:11.206Z,9.18
2023-04-17T00:07:39.292Z,5.05
2023-04-17T00:10:09.479Z,13.57
2023-04-17T00:12:39.376Z,6.43
2023-04-17T00:15:08.230Z,5.55
2023-04-17T00:17:36.004Z,4.47
2023-04-17T00:20:07.920Z,2.50
2023-04-17T00:22:36.267Z,4.72
2023-04-17T00:25:04.391Z,5.90
2023-04-17T00:27:32.230Z,5.53
2023-04-17T00:30:01.601Z,8.73
2023-04-17T00:32:29.498Z,7.68
2023-04-17T00:34:57.296Z,3.78
2023-04-17T00:37:25.078Z,8.40
2023-04-17T00:39:52.767Z,6.78
2023-04-17T00:42:20.455Z,3.63
2023-04-17T00:44:48.203Z,4.28
2023-04-17T00:47:17.350Z,4.97
2023-04-17T00:49:45.271Z,6.00
2023-04-17T00:52:13.757Z,6.82
2023-04-17T00:54:41.723Z,3.22
2023-04-17T00:57:09.511Z,5.90
2023-04-17T00:59:40.095Z,5.65
2023-04-17T01:02:07.920Z,4.28
2023-04-17T01:04:37.114Z,6.85
2023-04-17T01:07:04.893Z,4.93
2023-04-17T01:09:32.705Z,3.47
2023-04-17T01:12:19.013Z,2.78
2023-04-17T01:14:46.904Z,3.47
2023-04-17T01:17:15.364Z,9.05
2023-04-17T01:19:44.500Z,3.03
2023-04-17T01:22:12.390Z,3.70
2023-04-17T01:24:41.598Z,4.13
2023-04-17T01:27:09.391Z,3.03
2023-04-17T01:29:37.143Z,3.70
2023-04-17T01:32:05.096Z,3.58
2023-04-17T01:34:32.803Z,4.93
2023-04-17T01:37:00.533Z,3.20
2023-04-17T01:39:28.284Z,5.63
2023-04-17T01:41:57.474Z,6.03
2023-04-17T01:44:25.243Z,5.68
2023-04-17T01:46:53.009Z,3.60
2023-04-17T01:49:20.808Z,9.52
2023-04-17T01:51:48.591Z,3.45
2023-04-17T01:54:16.390Z,4.70
2023-04-17T01:56:44.282Z,6.55
2023-04-17T01:59:13.616Z,3.40
2023-04-17T02:01:41.589Z,4.07
2023-04-17T02:04:09.814Z,6.10
2023-04-17T02:06:37.570Z,4.28
2023-04-17T02:09:06.180Z,3.25
2023-04-17T02:11:33.944Z,4.05
2023-04-17T02:14:01.891Z,4.53
2023-04-17T02:16:31.823Z,4.47
2023-04-17T02:18:59.604Z,5.95
2023-04-17T02:21:28.293Z,9.20
2023-04-17T02:23:55.956Z,7.07
2023-04-17T02:26:23.667Z,4.07
2023-04-17T02:28:51.374Z,4.00
2023-04-17T02:31:19.376Z,4.50
2023-04-17T02:33:48.441Z,4.15
2023-04-17T02:36:16.221Z,4.13
2023-04-17T02:38:43.886Z,4.50
2023-04-17T02:41:11.610Z,4.55
2023-04-17T02:43:39.344Z,6.35
2023-04-17T02:46:07.072Z,3.35
2023-04-17T02:48:34.841Z,7.32
2023-04-17T02:51:03.920Z,3.17
2023-04-17T02:53:31.598Z,3.97
2023-04-17T02:55:59.360Z,3.45
2023-04-17T02:58:27.062Z,5.15
2023-04-17T03:01:01.381Z,2.83
2023-04-17T03:03:31.229Z,3.80
2023-04-17T03:05:59.177Z,4.60
2023-04-17T03:08:32.579Z,4.85
2023-04-17T03:11:00.841Z,5.22
2023-04-17T03:13:28.518Z,2.40
2023-04-17T03:15:56.255Z,4.55
2023-04-17T03:18:24.067Z,7.35
2023-04-17T03:20:52.786Z,5.63
2023-04-17T03:23:20.513Z,4.18
2023-04-17T03:25:49.629Z,5.70
2023-04-17T03:28:17.384Z,4.45
2023-04-17T03:30:45.300Z,4.85
2023-04-17T03:33:12.964Z,5.57
2023-04-17T03:35:40.939Z,10.10
2023-04-17T03:38:08.679Z,5.85
2023-04-17T03:40:36.625Z,3.60
2023-04-17T03:43:05.757Z,3.20
2023-04-17T03:45:33.574Z,9.45
2023-04-17T03:48:01.501Z,4.18
2023-04-17T03:50:29.307Z,4.50
2023-04-17T03:52:57.040Z,4.07
2023-04-17T03:55:25.017Z,3.45
2023-04-17T03:57:52.724Z,4.63
2023-04-17T04:00:22.133Z,6.22
2023-04-17T04:02:50.202Z,3.95
2023-04-17T04:05:18.286Z,4.05
2023-04-17T04:07:46.074Z,3.25
2023-04-17T04:10:13.776Z,3.58
2023-04-17T04:12:41.471Z,3.63
2023-04-17T04:15:10.542Z,4.35
2023-04-17T04:17:39.869Z,2.92
2023-04-17T04:20:09.126Z,6.43
2023-04-17T04:22:36.873Z,7.30
2023-04-17T04:25:04.721Z,4.90
2023-04-17T04:27:33.214Z,3.42
2023-04-17T04:30:02.046Z,4.63
2023-04-17T04:32:29.972Z,2.95
2023-04-17T04:35:01.579Z,5.57
2023-04-17T04:37:32.162Z,6.07
2023-04-17T04:40:10.533Z,4.53
2023-04-17T04:42:39.709Z,3.67
2023-04-17T04:45:08.334Z,5.50
2023-04-17T04:47:36.396Z,3.22
2023-04-17T04:50:06.221Z,3.92
2023-04-17T04:52:33.995Z,5.07
2023-04-17T04:55:01.970Z,2.53
2023-04-17T04:57:29.804Z,3.88
2023-04-17T04:59:57.550Z,5.53
2023-04-17T05:02:26.145Z,4.40
2023-04-17T05:04:54.085Z,4.25
2023-04-17T05:07:23.188Z,2.92
2023-04-17T05:09:51.121Z,2.85
2023-04-17T05:12:18.861Z,3.38
2023-04-17T05:14:47.865Z,3.50
2023-04-17T05:17:15.561Z,4.25
2023-04-17T05:19:43.245Z,4.50
2023-04-17T05:22:10.985Z,3.15
2023-04-17T05:24:40.075Z,5.22
2023-04-17T05:27:07.830Z,10.82
2023-04-17T05:29:37.313Z,4.68
2023-04-17T05:32:05.739Z,10.10
2023-04-17T05:34:33.530Z,4.88
2023-04-17T05:37:01.469Z,5.50
2023-04-17T05:39:29.202Z,4.03
2023-04-17T05:41:58.301Z,5.22
2023-04-17T05:44:26.112Z,3.55
2023-04-17T05:46:56.323Z,5.45
2023-04-17T05:49:24.222Z,3.00
2023-04-17T05:51:51.915Z,3.95
2023-04-17T05:54:19.675Z,4.22
2023-04-17T05:56:47.635Z,2.85
2023-04-17T05:59:16.748Z,3.67
2023-04-17T06:01:44.647Z,4.43
2023-04-17T06:04:12.968Z,14.18
2023-04-17T06:06:40.934Z,3.63
2023-04-17T06:09:09.560Z,4.25
2023-04-17T06:11:37.436Z,4.90
2023-04-17T06:14:05.456Z,7.03
2023-04-17T06:16:34.628Z,8.32
2023-04-17T06:19:02.380Z,15.15
2023-04-17T06:21:31.408Z,8.52
2023-04-17T06:23:59.152Z,8.45
2023-04-17T06:26:26.985Z,6.50
2023-04-17T06:28:54.766Z,6.97
2023-04-17T06:31:22.540Z,3.50
2023-04-17T06:33:51.580Z,10.05
2023-04-17T06:36:19.361Z,6.20
2023-04-17T06:38:47.068Z,3.65
2023-04-17T06:41:15.509Z,4.53
2023-04-17T06:43:43.219Z,6.70
2023-04-17T06:46:11.057Z,4.30
2023-04-17T06:48:38.750Z,4.65
2023-04-17T06:51:07.974Z,5.22
2023-04-17T06:53:36.039Z,6.10
2023-04-17T06:56:03.737Z,4.47
2023-04-17T06:58:31.577Z,9.43
2023-04-17T07:00:59.289Z,10.77
2023-04-17T07:03:27.256Z,9.07
2023-04-17T07:05:55.226Z,15.50
2023-04-17T07:08:24.296Z,7.95
2023-04-17T07:10:52.065Z,12.27
2023-04-17T07:13:19.764Z,7.00
2023-04-17T07:15:52.683Z,10.48
2023-04-17T07:18:21.549Z,9.90
2023-04-17T07:20:49.460Z,11.70
2023-04-17T07:23:17.208Z,7.75
2023-04-17T07:25:46.296Z,10.27
2023-04-17T07:28:14.373Z,7.07
2023-04-17T07:30:42.634Z,8.60
2023-04-17T07:33:10.386Z,11.70
2023-04-17T07:35:38.249Z,10.80
2023-04-17T07:38:05.984Z,5.07
2023-04-17T07:40:35.772Z,11.10
2023-04-17T07:43:04.868Z,7.38
2023-04-17T07:45:33.712Z,9.82
2023-04-17T07:48:01.605Z,10.60
2023-04-17T07:50:29.318Z,10.27
2023-04-17T07:52:57.566Z,6.07
2023-04-17T07:55:25.428Z,9.27
2023-04-17T07:57:53.200Z,6.95
2023-04-17T08:00:23.852Z,4.43
2023-04-17T08:02:52.471Z,7.22
2023-04-17T08:05:20.462Z,8.73
2023-04-17T08:07:48.281Z,5.20
2023-04-17T08:10:16.303Z,4.60
2023-04-17T08:12:44.350Z,3.20
2023-04-17T08:15:12.810Z,4.15
2023-04-17T08:17:41.931Z,4.78
2023-04-17T08:20:13.360Z,4.82
2023-04-17T08:22:41.896Z,5.07
2023-04-17T08:25:11.147Z,9.70
2023-04-17T08:27:39.904Z,7.20
2023-04-17T08:30:11.961Z,9.40
2023-04-17T08:32:44.583Z,3.97
2023-04-17T08:35:13.976Z,4.63
2023-04-17T08:37:42.372Z,5.57
2023-04-17T08:40:11.170Z,13.25
2023-04-17T08:42:41.555Z,4.13
2023-04-17T08:45:11.514Z,3.72
2023-04-17T08:47:40.507Z,3.17
2023-04-17T08:50:11.792Z,4.15
2023-04-17T08:52:42.567Z,6.57
2023-04-17T08:55:11.983Z,5.05
2023-04-17T08:57:55.304Z,6.57
2023-04-17T09:00:27.534Z,4.38
2023-04-17T09:02:56.681Z,5.68
2023-04-17T09:05:27.221Z,8.75
2023-04-17T09:08:08.566Z,4.80
2023-04-17T09:10:37.712Z,4.15
2023-04-17T09:13:05.776Z,5.15
2023-04-17T09:15:33.946Z,3.95
2023-04-17T09:18:01.993Z,8.55
2023-04-17T09:20:31.183Z,4.80
2023-04-17T09:23:01.311Z,4.78
2023-04-17T09:25:29.566Z,6.78
2023-04-17T09:28:09.752Z,4.82
2023-04-17T09:30:38.841Z,5.30
2023-04-17T09:33:08.514Z,8.30
2023-04-17T09:35:40.237Z,5.57
2023-04-17T09:38:08.445Z,4.35
2023-04-17T09:40:40.886Z,8.15
2023-04-17T09:43:10.588Z,5.55
2023-04-17T09:45:42.893Z,4.35
2023-04-17T09:48:11.964Z,8.27
2023-04-17T09:50:41.467Z,4.80
2023-04-17T09:53:09.744Z,8.82
2023-04-17T09:55:37.812Z,11.73
2023-04-17T09:58:08.095Z,9.45
2023-04-17T10:00:37.980Z,3.85
2023-04-17T10:03:08.148Z,4.80
2023-04-17T10:05:36.804Z,5.20
2023-04-17T10:08:06.867Z,4.43
2023-04-17T10:10:36.401Z,8.15
2023-04-17T10:13:08.192Z,4.43
2023-04-17T10:15:37.244Z,4.20
2023-04-17T10:18:22.875Z,5.68
2023-04-17T10:20:53.100Z,7.15
2023-04-17T10:23:40.145Z,4.35
2023-04-17T10:26:37.856Z,3.40
2023-04-17T10:29:05.735Z,6.05
2023-04-17T10:32:24.231Z,8.18
2023-04-17T10:34:52.843Z,7.25
2023-04-17T10:37:23.041Z,6.47
2023-04-17T10:39:56.689Z,4.88
2023-04-17T10:42:25.635Z,6.20
2023-04-17T10:44:58.870Z,6.25
2023-04-17T10:49:59.866Z,4.03
2023-04-17T10:52:48.624Z,5.10
2023-04-17T10:55:22.071Z,6.40
2023-04-17T10:58:04.742Z,10.60
2023-04-17T11:00:34.790Z,9.55
2023-04-17T11:03:03.450Z,7.35
2023-04-17T11:05:32.297Z,6.57
2023-04-17T11:08:00.586Z,4.90
2023-04-17T11:10:29.771Z,6.95
2023-04-17T11:12:57.544Z,5.72
2023-04-17T11:15:29.283Z,2.92
2023-04-17T11:17:57.919Z,5.25
2023-04-17T11:20:27.142Z,3.60
2023-04-17T11:22:54.902Z,3.85
2023-04-17T11:25:24.518Z,8.90
2023-04-17T11:27:56.585Z,6.03
2023-04-17T11:30:32.355Z,2.42
2023-04-17T11:33:00.922Z,3.25
2023-04-17T11:35:30.028Z,1.65
2023-04-17T11:38:12.824Z,2.47
2023-04-17T11:40:48.730Z,2.70
2023-04-17T11:43:18.535Z,2.65
2023-04-17T11:45:48.727Z,8.88
2023-04-17T11:48:19.620Z,3.05
2023-04-17T11:50:47.307Z,3.05
2023-04-17T11:53:16.324Z,2.65
2023-04-17T11:55:44.881Z,4.57
2023-04-17T11:58:14.389Z,5.68
2023-04-17T12:00:43.579Z,3.88
2023-04-17T12:03:35.001Z,5.85
2023-04-17T12:06:05.011Z,2.05
2023-04-17T12:08:42.180Z,3.03
2023-04-17T12:11:18.595Z,2.33
2023-04-17T12:13:46.377Z,4.45
2023-04-17T12:16:15.471Z,1.92
2023-04-17T12:18:43.172Z,6.05
2023-04-17T12:21:10.914Z,6.32
2023-04-17T12:23:38.836Z,4.75
2023-04-17T12:26:06.847Z,6.07
2023-04-17T12:28:34.739Z,2.22
2023-04-17T12:31:02.545Z,2.53
2023-04-17T12:33:31.950Z,6.63
2023-04-17T12:36:00.331Z,3.70
2023-04-17T12:38:28.312Z,2.53
2023-04-17T12:40:56.105Z,4.50
2023-04-17T12:43:23.951Z,3.92
2023-04-17T12:45:53.593Z,3.30
2023-04-17T12:48:21.351Z,2.95
2023-04-17T12:50:50.440Z,2.95
2023-04-17T12:53:18.367Z,4.57
2023-04-17T12:55:46.061Z,3.80
2023-04-17T12:58:14.533Z,3.67
2023-04-17T13:00:43.798Z,4.18
2023-04-17T13:03:12.609Z,3.80
2023-04-17T13:05:40.733Z,5.07
2023-04-17T13:08:14.803Z,3.03
2023-04-17T13:10:42.864Z,5.38
2023-04-17T13:13:11.262Z,5.68
2023-04-17T13:15:40.406Z,2.85
2023-04-17T13:18:10.484Z,3.45
2023-04-17T13:20:38.901Z,4.13
2023-04-17T13:23:06.649Z,3.03
2023-04-17T13:25:36.445Z,6.43
2023-04-17T13:28:04.310Z,2.72
2023-04-17T13:30:33.554Z,4.22
2023-04-17T13:33:01.443Z,3.28
2023-04-17T13:35:29.179Z,3.78
2023-04-17T13:38:00.918Z,3.53
2023-04-17T13:40:28.814Z,3.65
2023-04-17T13:42:58.502Z,7.97
2023-04-17T13:45:26.285Z,3.40
2023-04-17T13:47:54.098Z,3.03
2023-04-17T13:50:21.848Z,7.38
2023-04-17T13:52:49.595Z,18.20
2023-04-17T13:55:17.486Z,3.78
2023-04-17T13:57:45.156Z,6.30
2023-04-17T14:00:15.743Z,6.47
2023-04-17T14:02:43.592Z,7.40
2023-04-17T14:05:11.520Z,4.38
2023-04-17T14:07:39.441Z,5.18
2023-04-17T14:10:08.745Z,4.85
2023-04-17T14:12:36.522Z,3.45
2023-04-17T14:15:04.574Z,4.00
2023-04-17T14:17:34.363Z,3.28
2023-04-17T14:20:02.201Z,6.57
2023-04-17T14:22:29.975Z,4.25
2023-04-17T14:24:57.642Z,3.15
2023-04-17T14:27:25.379Z,7.65
2023-04-17T14:29:53.135Z,2.42
2023-04-17T14:32:20.833Z,4.63
2023-04-17T14:34:50.027Z,11.82
2023-04-17T14:37:17.758Z,4.55
2023-04-17T14:39:45.444Z,2.67
2023-04-17T14:42:13.133Z,3.85
2023-04-17T14:44:40.877Z,2.83
2023-04-17T14:47:08.762Z,4.20
2023-04-17T14:49:36.635Z,3.85
2023-04-17T14:52:06.819Z,2.67
2023-04-17T14:54:34.931Z,2.90
2023-04-17T14:57:02.749Z,3.95
2023-04-17T14:59:30.800Z,2.80
2023-04-17T15:01:58.628Z,16.83
2023-04-17T15:04:26.506Z,8.98
2023-04-17T15:06:54.250Z,2.47
2023-04-17T15:09:23.308Z,5.70
2023-04-17T15:11:51.195Z,3.45
2023-04-17T15:14:18.855Z,3.42
2023-04-17T15:16:46.672Z,2.45
2023-04-17T15:19:14.647Z,1.88
2023-04-17T15:21:42.520Z,2.95
2023-04-17T15:24:10.213Z,3.63
2023-04-17T15:26:39.239Z,2.28
2023-04-17T15:29:06.968Z,2.58
2023-04-17T15:31:34.789Z,5.20
2023-04-17T15:34:02.499Z,2.10
2023-04-17T15:36:32.176Z,5.03
2023-04-17T15:38:59.896Z,4.45
2023-04-17T15:41:27.959Z,2.55
2023-04-17T15:43:57.234Z,2.85
2023-04-17T15:46:25.055Z,3.20
2023-04-17T15:49:07.649Z,5.72
2023-04-17T15:51:36.400Z,2.28
2023-04-17T15:54:04.572Z,2.97
2023-04-17T15:56:32.287Z,2.30
2023-04-17T15:59:01.333Z,3.85
2023-04-17T16:01:29.052Z,1.50
2023-04-17T16:03:56.861Z,4.70
2023-04-17T16:06:24.629Z,3.90
2023-04-17T16:08:52.381Z,2.35
2023-04-17T16:11:20.162Z,5.43
2023-04-17T16:13:47.868Z,3.95
2023-04-17T16:16:16.992Z,4.78
2023-04-17T16:18:47.159Z,5.75
2023-04-17T16:21:15.255Z,2.92
2023-04-17T16:23:45.698Z,8.38
2023-04-17T16:26:14.577Z,2.92
2023-04-17T16:28:43.228Z,3.78
2023-04-17T16:31:11.109Z,4.40
2023-04-17T16:33:40.362Z,3.97
2023-04-17T16:36:08.250Z,3.67
2023-04-17T16:38:36.082Z,7.90
2023-04-17T16:41:04.291Z,5.40
2023-04-17T16:43:32.160Z,4.00
2023-04-17T16:46:01.414Z,4.47
2023-04-17T16:48:36.469Z,4.60
2023-04-17T16:51:06.692Z,4.78
2023-04-17T16:53:34.785Z,5.07
2023-04-17T16:56:02.716Z,3.45
2023-04-17T16:58:30.853Z,4.93
2023-04-17T17:00:58.624Z,4.25
2023-04-17T17:03:26.598Z,8.60
2023-04-17T17:05:55.103Z,4.22
2023-04-17T17:08:24.407Z,4.40
2023-04-17T17:10:52.344Z,5.60
2023-04-17T17:13:20.045Z,5.28
2023-04-17T17:15:47.753Z,4.88
2023-04-17T17:18:15.571Z,3.22
2023-04-17T17:20:43.283Z,8.20
2023-04-17T17:23:11.087Z,7.93
2023-04-17T17:25:40.113Z,6.35
2023-04-17T17:28:07.833Z,6.85
2023-04-17T17:30:35.546Z,6.88
2023-04-17T17:33:03.247Z,5.85
2023-04-17T17:35:30.924Z,7.18
2023-04-17T17:37:58.669Z,2.70
2023-04-17T17:40:26.393Z,7.72
2023-04-17T17:42:55.428Z,3.45
2023-04-17T17:45:23.115Z,5.07
2023-04-17T17:47:50.893Z,3.20
2023-04-17T17:50:18.752Z,5.65
2023-04-17T17:52:46.516Z,6.85
2023-04-17T17:55:15.940Z,4.03
2023-04-17T17:57:49.389Z,4.20
2023-04-17T18:00:19.677Z,3.63
2023-04-17T18:02:47.632Z,4.60
2023-04-17T18:05:15.377Z,5.78
2023-04-17T18:07:43.178Z,7.70
2023-04-17T18:10:11.559Z,4.60
2023-04-17T18:12:39.669Z,7.10
2023-04-17T18:15:08.744Z,4.35
2023-04-17T18:17:37.850Z,8.27
2023-04-17T18:20:06.030Z,7.18
2023-04-17T18:22:33.743Z,10.75
2023-04-17T18:25:01.592Z,4.70
2023-04-17T18:27:30.773Z,3.45
2023-04-17T18:29:59.348Z,3.15
2023-04-17T18:32:27.031Z,5.45
2023-04-17T18:34:56.133Z,6.88
2023-04-17T18:37:24.052Z,9.00
2023-04-17T18:39:52.723Z,3.67
2023-04-17T18:42:20.511Z,3.88
2023-04-17T18:44:48.653Z,2.95
2023-04-17T18:47:16.520Z,4.22
2023-04-17T18:49:44.432Z,3.15
2023-04-17T18:52:13.496Z,5.32
2023-04-17T18:54:41.129Z,5.13
2023-04-17T18:57:08.837Z,7.90
2023-04-17T18:59:36.561Z,2.25
2023-04-17T19:02:04.424Z,7.40
2023-04-17T19:04:32.193Z,2.20
2023-04-17T19:07:00.075Z,4.07
2023-04-17T19:09:29.339Z,4.15
2023-04-17T19:11:58.558Z,6.43
2023-04-17T19:14:26.604Z,3.85
2023-04-17T19:16:54.442Z,5.15
2023-04-17T19:19:22.291Z,6.35
2023-04-17T19:21:50.123Z,4.75
2023-04-17T19:24:17.850Z,3.55
2023-04-17T19:26:47.072Z,6.97
2023-04-17T19:29:17.073Z,7.15
2023-04-17T19:31:45.640Z,4.25
2023-04-17T19:34:13.399Z,3.80
2023-04-17T19:36:42.527Z,4.65
2023-04-17T19:39:10.245Z,3.10
2023-04-17T19:41:38.029Z,5.38
2023-04-17T19:44:07.210Z,2.75
2023-04-17T19:46:34.910Z,8.00
2023-04-17T19:49:02.613Z,6.05
2023-04-17T19:51:31.375Z,4.85
2023-04-17T19:53:59.049Z,4.82
2023-04-17T19:56:26.726Z,5.50
2023-04-17T19:58:54.407Z,3.38
2023-04-17T20:01:23.492Z,5.88
2023-04-17T20:03:51.375Z,5.32
2023-04-17T20:06:20.427Z,4.47
2023-04-17T20:08:48.192Z,6.35
2023-04-17T20:11:17.019Z,2.72
2023-04-17T20:13:44.726Z,4.50
2023-04-17T20:16:12.379Z,5.13
2023-04-17T20:18:41.752Z,4.03
2023-04-17T20:21:09.471Z,4.07
2023-04-17T20:23:37.202Z,6.75
2023-04-17T20:26:04.976Z,3.47
2023-04-17T20:28:32.727Z,3.30
2023-04-17T20:31:00.590Z,2.80
2023-04-17T20:33:28.467Z,2.05
2023-04-17T20:35:57.565Z,7.03
2023-04-17T20:38:25.721Z,5.40
2023-04-17T20:40:53.471Z,4.88
2023-04-17T20:43:21.188Z,2.63
2023-04-17T20:45:49.376Z,4.00
2023-04-17T20:48:17.219Z,9.30
2023-04-17T20:50:45.014Z,5.60
2023-04-17T20:53:14.087Z,2.40
2023-04-17T20:55:41.896Z,6.25
2023-04-17T20:58:09.657Z,2.40
2023-04-17T21:00:44.391Z,4.88
2023-04-17T21:03:15.415Z,6.60
2023-04-17T21:05:43.319Z,8.02
2023-04-17T21:08:11.578Z,6.53
2023-04-17T21:10:40.912Z,5.32
2023-04-17T21:13:08.652Z,2.65
2023-04-17T21:15:36.388Z,3.17
2023-04-17T21:18:04.228Z,3.85
2023-04-17T21:20:32.030Z,5.28
2023-04-17T21:22:59.761Z,4.97
2023-04-17T21:25:27.562Z,3.92
2023-04-17T21:27:56.643Z,5.30
2023-04-17T21:30:27.111Z,4.55
2023-04-17T21:32:55.412Z,7.57
2023-04-17T21:35:23.315Z,6.65
2023-04-17T21:37:51.080Z,4.78
2023-04-17T21:40:18.850Z,4.95
2023-04-17T21:42:46.728Z,6.70
2023-04-17T21:45:16.194Z,8.60
2023-04-17T21:47:43.987Z,5.25
2023-04-17T21:50:12.134Z,4.57
2023-04-17T21:52:39.828Z,8.82
2023-04-17T21:55:08.575Z,6.40
2023-04-17T21:57:36.272Z,8.25
2023-04-17T22:00:05.384Z,10.93
2023-04-17T22:02:34.499Z,10.05
2023-04-17T22:05:02.237Z,10.70
2023-04-17T22:07:30.147Z,12.60
2023-04-17T22:10:00.192Z,11.02
2023-04-17T22:12:27.926Z,13.65
2023-04-17T22:14:55.778Z,14.98
2023-04-17T22:17:23.593Z,9.88
2023-04-17T22:20:12.307Z,13.23
2023-04-17T22:22:40.100Z,18.27
2023-04-17T22:25:08.586Z,22.70
2023-04-17T22:27:36.327Z,12.98
2023-04-17T22:30:04.628Z,18.02
2023-04-17T22:32:34.071Z,17.25
2023-04-17T22:35:01.751Z,17.08
2023-04-17T22:37:31.151Z,19.85
2023-04-17T22:39:58.930Z,23.67
2023-04-17T22:42:26.626Z,20.65
2023-04-17T22:44:54.338Z,18.30
2023-04-17T22:47:22.745Z,22.02
2023-04-17T22:49:52.516Z,19.05
2023-04-17T22:52:20.550Z,18.52
2023-04-17T22:54:49.570Z,15.52
2023-04-17T22:57:17.248Z,21.80
2023-04-17T22:59:44.980Z,17.40
2023-04-17T23:02:12.881Z,22.15
2023-04-17T23:04:40.783Z,15.60
2023-04-17T23:07:08.560Z,22.38
2023-04-17T23:09:36.277Z,16.75
2023-04-17T23:12:07.032Z,21.95
2023-04-17T23:14:34.882Z,23.95
2023-04-17T23:17:02.642Z,17.45
2023-04-17T23:19:30.382Z,19.60
2023-04-17T23:21:59.598Z,21.20
2023-04-17T23:24:27.454Z,14.88
2023-04-17T23:26:56.097Z,18.45
2023-04-17T23:29:25.244Z,15.40
2023-04-17T23:31:53.109Z,14.82
2023-04-17T23:34:20.919Z,16.58
2023-04-17T23:36:48.682Z,16.13
2023-04-17T23:39:16.372Z,9.90
2023-04-17T23:41:44.115Z,16.77
2023-04-17T23:44:12.089Z,16.83
2023-04-17T23:46:41.556Z,19.17
2023-04-17T23:49:09.451Z,19.58
2023-04-17T23:51:37.194Z,15.25
2023-04-17T23:54:05.323Z,16.65
2023-04-17T23:56:33.147Z,14.85
2023-04-17T23:59:00.946Z,17.58
